Time;durP1;ratioP1;P1;durP2;ratioP2;P2;SDS_P1;SDS_P2;PMS_P1;PMS_P2;Temp;Humidity;BMP_temperature;BMP_pressure;BME280_temperature;BME280_humidity;BME280_pressure;Samples;Min_cycle;Max_cycle;Signal;HPM_P1;HPM_P2
2021/08/24 00:01:23;;;;;;;10.35;5.35;;;;;;;13.77;100.00;99687.50;5054348;28;20045;-81
2021/08/24 00:03:50;;;;;;;8.07;5.13;;;;;;;13.96;100.00;99710.63;5051004;28;20122;-81
2021/08/24 00:06:23;;;;;;;7.32;5.18;;;;;;;13.74;100.00;99693.34;5050446;28;20091;-81
2021/08/24 00:08:53;;;;;;;8.35;5.00;;;;;;;13.90;100.00;99708.69;5051127;28;20049;-80
2021/08/24 00:11:24;;;;;;;14.77;5.00;;;;;;;13.89;100.00;99708.88;5051006;28;20041;-81
2021/08/24 00:13:55;;;;;;;6.07;4.40;;;;;;;13.62;100.00;99689.44;5051037;28;20060;-82
2021/08/24 00:16:26;;;;;;;7.35;4.75;;;;;;;13.65;100.00;99693.69;5050428;28;20071;-82
2021/08/24 00:18:54;;;;;;;10.73;5.00;;;;;;;13.74;100.00;99701.56;5050156;28;20044;-81
2021/08/24 00:21:21;;;;;;;9.02;4.60;;;;;;;13.69;100.00;99706.75;5050960;28;20455;-82
2021/08/24 00:23:48;;;;;;;10.68;4.45;;;;;;;13.76;100.00;99701.38;5056111;28;20386;-82
2021/08/24 00:26:15;;;;;;;6.20;4.90;;;;;;;13.61;100.00;99695.97;5056287;28;20052;-81
2021/08/24 00:28:42;;;;;;;9.63;4.53;;;;;;;13.62;100.00;99712.16;5053731;28;20228;-81
2021/08/24 00:31:13;;;;;;;10.02;4.43;;;;;;;13.62;100.00;99703.97;5054150;28;20122;-81
2021/08/24 00:33:44;;;;;;;13.27;5.70;;;;;;;13.47;100.00;99696.81;5053750;28;20357;-81
2021/08/24 00:36:14;;;;;;;10.95;4.95;;;;;;;13.52;100.00;99684.28;5053325;28;20131;-82
2021/08/24 00:38:42;;;;;;;8.98;5.72;;;;;;;13.63;100.00;99702.91;5054625;28;20040;-81
2021/08/24 00:41:09;;;;;;;9.32;4.60;;;;;;;13.68;100.00;99704.22;5053984;28;20099;-81
2021/08/24 00:43:39;;;;;;;5.10;4.60;;;;;;;13.52;100.00;99710.75;5054297;28;20048;-81
2021/08/24 00:46:27;;;;;;;8.57;5.37;;;;;;;13.08;100.00;99691.47;5054093;28;20451;-81
2021/08/24 00:48:56;;;;;;;5.97;4.35;;;;;;;13.17;100.00;99716.78;5054601;28;20051;-81
2021/08/24 00:51:29;;;;;;;6.55;4.32;;;;;;;13.17;100.00;99697.69;5054104;28;20061;-81
2021/08/24 00:54:00;;;;;;;6.88;4.85;;;;;;;13.12;100.00;99688.34;5054262;28;20048;-82
2021/08/24 00:56:32;;;;;;;7.85;4.78;;;;;;;13.10;100.00;99707.66;5052991;28;20056;-82
2021/08/24 00:59:03;;;;;;;6.60;3.53;;;;;;;12.95;100.00;99693.13;5048727;28;20056;-83
2021/08/24 01:01:31;;;;;;;6.50;3.47;;;;;;;13.20;100.00;99707.34;5062781;28;20055;-80
2021/08/24 01:04:00;;;;;;;6.78;3.60;;;;;;;13.00;100.00;99705.19;5060818;28;20049;-82
2021/08/24 01:06:37;;;;;;;4.93;3.50;;;;;;;12.95;100.00;99704.03;5054121;28;20423;-82
2021/08/24 01:09:32;;;;;;;4.28;3.58;;;;;;;12.94;100.00;99695.03;5053938;28;20056;-80
2021/08/24 01:12:07;;;;;;;3.63;2.92;;;;;;;12.73;100.00;99684.84;5054042;28;20521;-81
2021/08/24 01:14:48;;;;;;;4.10;3.17;;;;;;;12.79;100.00;99713.25;5053868;28;20069;-81
2021/08/24 01:17:29;;;;;;;5.80;2.65;;;;;;;12.68;100.00;99703.66;5053427;28;20045;-81
2021/08/24 01:20:38;;;;;;;7.05;3.03;;;;;;;12.66;100.00;99698.38;5053267;28;20431;-82
2021/08/24 01:23:33;;;;;;;5.45;2.40;;;;;;;12.59;100.00;99707.50;5045109;28;20045;-82
2021/08/24 01:26:12;;;;;;;7.90;2.95;;;;;;;12.51;100.00;99702.94;5050154;28;20448;-82
2021/08/24 01:28:51;;;;;;;2.85;2.33;;;;;;;12.38;100.00;99700.84;5053136;28;20041;-81
2021/08/24 01:31:37;;;;;;;4.43;2.58;;;;;;;12.28;100.00;99694.81;5053538;28;20060;-81
2021/08/24 01:34:25;;;;;;;10.55;2.58;;;;;;;12.11;100.00;99694.09;5060448;28;20109;-81
2021/08/24 01:37:00;;;;;;;7.72;3.35;;;;;;;12.23;100.00;99700.81;5053262;28;20041;-82
2021/08/24 01:39:47;;;;;;;4.75;3.30;;;;;;;12.23;100.00;99684.44;5056235;28;20059;-81
2021/08/24 01:42:18;;;;;;;6.20;3.63;;;;;;;12.28;100.00;99695.63;5053680;28;20056;-82
2021/08/24 01:45:05;;;;;;;10.20;5.57;;;;;;;12.47;100.00;99699.75;5053330;28;20106;-83
2021/08/24 01:47:40;;;;;;;11.90;5.82;;;;;;;12.35;100.00;99696.59;5052908;28;20106;-82
2021/08/24 01:50:27;;;;;;;12.70;5.88;;;;;;;12.28;100.00;99683.91;5053422;28;20075;-82
2021/08/24 01:53:09;;;;;;;11.02;5.03;;;;;;;12.28;100.00;99700.25;5052606;28;20056;-82
2021/08/24 01:55:42;;;;;;;7.28;4.30;;;;;;;12.28;100.00;99686.63;5053023;28;20121;-82
2021/08/24 01:58:14;;;;;;;11.55;4.70;;;;;;;12.25;100.00;99698.72;5052693;28;20072;-82
2021/08/24 02:00:47;;;;;;;7.75;4.30;;;;;;;12.12;100.00;99699.38;5060707;28;20098;-81
2021/08/24 02:03:20;;;;;;;6.18;4.80;;;;;;;11.93;100.00;99684.31;5054991;28;20047;-81
2021/08/24 02:05:49;;;;;;;9.52;4.75;;;;;;;11.94;100.00;99698.78;5052722;28;20052;-81
2021/08/24 02:08:22;;;;;;;12.02;5.43;;;;;;;12.11;100.00;99710.44;5053077;28;20053;-82
2021/08/24 02:10:55;;;;;;;10.55;4.85;;;;;;;12.11;100.00;99707.72;5052447;28;20057;-81
2021/08/24 02:13:24;;;;;;;5.65;4.40;;;;;;;12.03;100.00;99701.28;5063264;28;20048;-81
2021/08/24 02:15:55;;;;;;;8.32;3.83;;;;;;;11.96;100.00;99702.19;5054822;28;20520;-82
2021/08/24 02:18:27;;;;;;;7.60;4.07;;;;;;;11.89;100.00;99702.03;5056083;28;20044;-81
2021/08/24 02:21:00;;;;;;;10.68;4.90;;;;;;;11.78;100.00;99688.84;5052487;28;20386;-82
2021/08/24 02:23:33;;;;;;;7.05;4.03;;;;;;;11.69;100.00;99697.03;5058373;28;20059;-82
2021/08/24 02:26:04;;;;;;;8.40;3.88;;;;;;;11.61;100.00;99690.81;5055215;28;20049;-82
2021/08/24 02:28:34;;;;;;;7.18;3.95;;;;;;;11.53;100.00;99688.97;5051883;28;20106;-82
2021/08/24 02:31:08;;;;;;;6.18;3.20;;;;;;;11.76;100.00;99710.81;5052042;28;20053;-82
2021/08/24 02:33:42;;;;;;;7.53;3.80;;;;;;;11.60;100.00;99714.47;5051974;28;20049;-82
2021/08/24 02:36:12;;;;;;;5.78;3.67;;;;;;;11.64;100.00;99704.91;5051216;28;20088;-82
2021/08/24 02:38:43;;;;;;;;;;;;;;;11.72;100.00;99714.06;5044362;28;20116;-82
2021/08/24 02:41:14;;;;;;;5.20;3.78;;;;;;;11.67;100.00;99699.09;5052232;28;19927;-82
2021/08/24 02:43:49;;;;;;;7.50;4.15;;;;;;;11.47;100.00;99698.72;5051959;28;20061;-82
2021/08/24 02:46:20;;;;;;;4.25;3.38;;;;;;;11.40;100.00;99689.56;5051902;28;20453;-82
2021/08/24 02:48:51;;;;;;;5.60;3.42;;;;;;;11.34;100.00;99684.81;5053449;28;20565;-82
2021/08/24 02:51:20;;;;;;;7.82;3.65;;;;;;;11.26;100.00;99682.97;5052163;28;20049;-82
2021/08/24 02:53:59;;;;;;;11.45;3.30;;;;;;;11.32;100.00;99692.28;5057986;28;20044;-83
2021/08/24 03:14:26;;;;;;;8.20;4.18;;;;;;;10.92;100.00;99691.44;4893892;29;20072;-84
2021/08/24 03:17:10;;;;;;;4.47;3.25;;;;;;;10.91;100.00;99697.88;4857925;29;20246;-84
2021/08/24 03:22:24;;;;;;;4.22;2.65;;;;;;;10.77;100.00;99697.56;4920745;29;20079;-81
2021/08/24 03:24:51;;;;;;;3.97;2.00;;;;;;;10.72;100.00;99688.22;5055816;28;20070;-82
2021/08/24 03:27:19;;;;;;;9.13;2.38;;;;;;;10.47;100.00;99677.41;5110211;28;20048;-82
2021/08/24 03:29:58;;;;;;;2.78;2.17;;;;;;;10.54;100.00;99688.47;5112086;28;20059;-82
2021/08/24 03:32:27;;;;;;;4.10;2.40;;;;;;;10.65;100.00;99698.13;5111484;28;20422;-82
2021/08/24 03:34:54;;;;;;;5.38;2.85;;;;;;;10.69;100.00;99697.59;5102379;28;20414;-81
2021/08/24 04:02:20;;;;;;;33.55;4.38;;;;;;;10.24;100.00;99707.97;5181098;27;20050;-82
2021/08/24 04:04:53;;;;;;;51.45;4.88;;;;;;;10.38;100.00;99732.81;5172864;27;20478;-81
2021/08/24 04:07:26;;;;;;;104.28;6.43;;;;;;;10.20;100.00;99717.47;5187247;27;20046;-81
2021/08/24 04:09:54;;;;;;;99.68;5.18;;;;;;;10.22;100.00;99730.88;5192370;27;20412;-81
2021/08/24 04:12:22;;;;;;;23.90;4.00;;;;;;;10.26;100.00;99732.25;5190413;27;20042;-81
2021/08/24 04:14:49;;;;;;;3.85;2.72;;;;;;;10.16;100.00;99718.84;5171118;27;20047;-81
2021/08/24 04:17:16;;;;;;;6.60;2.72;;;;;;;10.20;100.00;99736.47;5172428;27;20194;-81
2021/08/24 04:19:45;;;;;;;4.85;3.30;;;;;;;10.10;100.00;99719.50;5183058;27;20042;-83
2021/08/24 04:22:18;;;;;;;5.90;2.33;;;;;;;10.04;100.00;99734.63;5192229;27;20274;-81
2021/08/24 04:24:45;;;;;;;3.85;2.50;;;;;;;10.05;100.00;99720.00;5176620;27;20042;-81
2021/08/24 04:27:12;;;;;;;7.85;2.58;;;;;;;10.00;100.00;99722.38;5189338;27;20050;-80
2021/08/24 04:29:39;;;;;;;3.50;2.30;;;;;;;10.15;99.35;99706.25;5183410;27;20083;-80
2021/08/24 04:32:07;;;;;;;3.53;2.20;;;;;;;10.10;98.41;99728.50;5181943;27;20042;-81
2021/08/24 04:39:09;;;;;;;31.70;3.28;;;;;;;9.90;100.00;99732.53;5106407;28;20047;-82
2021/08/24 04:55:19;;;;;;;3.05;2.33;;;;;;;10.01;100.00;99753.97;4929625;29;20086;-80
2021/08/24 04:57:46;;;;;;;3.42;2.55;;;;;;;9.96;100.00;99726.44;4940645;28;20048;-81
2021/08/24 05:00:15;;;;;;;7.15;3.53;;;;;;;10.14;100.00;99739.88;5063196;27;20046;-83
2021/08/24 05:02:41;;;;;;;4.05;2.22;;;;;;;10.20;100.00;99741.91;5151142;27;20047;-80
2021/08/24 05:05:10;;;;;;;5.20;2.90;;;;;;;10.29;100.00;99764.53;5167692;27;20053;-80
2021/08/24 05:07:36;;;;;;;3.35;2.75;;;;;;;10.36;100.00;99756.59;5165446;27;20120;-81
2021/08/24 05:10:07;;;;;;;5.35;2.67;;;;;;;10.33;100.00;99732.41;5136254;27;20112;-81
2021/08/24 05:12:35;;;;;;;4.85;3.75;;;;;;;10.50;100.00;99749.63;5151426;27;20111;-81
2021/08/24 05:15:02;;;;;;;12.95;3.42;;;;;;;10.41;100.00;99741.44;5135465;27;20396;-81
2021/08/24 05:17:29;;;;;;;7.70;3.58;;;;;;;10.53;100.00;99730.25;5138036;27;20124;-81
2021/08/24 05:19:56;;;;;;;9.13;3.80;;;;;;;10.70;100.00;99750.94;5151407;27;20066;-81
2021/08/24 05:22:23;;;;;;;5.97;3.50;;;;;;;10.74;100.00;99751.47;5155407;27;20494;-81
2021/08/24 05:24:50;;;;;;;4.20;3.25;;;;;;;10.83;100.00;99746.88;5135759;27;20047;-81
2021/08/24 05:27:17;;;;;;;5.65;3.70;;;;;;;10.96;100.00;99745.31;5136246;27;20509;-81
2021/08/24 05:29:46;;;;;;;8.95;4.70;;;;;;;11.21;100.00;99753.41;5135409;27;20053;-81
2021/08/24 05:32:13;;;;;;;11.77;4.22;;;;;;;11.37;100.00;99755.25;5151632;27;20058;-81
2021/08/24 05:34:40;;;;;;;14.25;5.07;;;;;;;11.46;100.00;99756.91;5146206;27;20483;-81
2021/08/24 05:37:07;;;;;;;11.43;5.38;;;;;;;11.50;98.92;99749.22;5143780;27;20046;-81
2021/08/24 05:39:35;;;;;;;9.15;5.07;;;;;;;11.42;100.00;99760.16;5136325;27;20047;-81
2021/08/24 05:42:03;;;;;;;12.27;5.55;;;;;;;11.58;100.00;99762.81;5143115;27;20074;-80
2021/08/24 05:44:30;;;;;;;9.38;4.72;;;;;;;11.61;100.00;99756.19;5143069;27;20274;-80
2021/08/24 05:46:58;;;;;;;8.93;5.03;;;;;;;11.56;100.00;99751.25;5135371;27;20134;-81
2021/08/24 05:49:25;;;;;;;9.57;4.78;;;;;;;11.75;100.00;99758.13;5139422;27;20462;-81
2021/08/24 05:51:52;;;;;;;6.60;4.68;;;;;;;11.71;99.83;99748.59;5138643;27;20046;-81
2021/08/24 05:54:19;;;;;;;13.70;4.93;;;;;;;11.79;100.00;99753.19;5140613;27;20085;-80
2021/08/24 05:56:48;;;;;;;7.65;3.97;;;;;;;11.87;100.00;99759.41;5142083;27;20499;-81
2021/08/24 05:59:18;;;;;;;9.82;5.43;;;;;;;12.07;100.00;99774.50;5146843;27;20131;-81
2021/08/24 06:01:45;;;;;;;12.93;4.13;;;;;;;12.05;98.98;99761.06;5141241;27;20043;-81
2021/08/24 06:04:14;;;;;;;7.10;4.00;;;;;;;11.98;100.00;99762.81;5136973;27;20077;-81
2021/08/24 06:06:43;;;;;;;6.38;3.70;;;;;;;11.80;100.00;99763.91;5141741;27;20051;-81
2021/08/24 06:09:12;;;;;;;6.15;3.85;;;;;;;11.91;100.00;99762.66;5146509;27;20081;-81
2021/08/24 06:11:42;;;;;;;10.93;3.63;;;;;;;11.83;100.00;99758.09;5155043;27;20088;-81
2021/08/24 06:14:11;;;;;;;;;;;;;;;11.95;100.00;99765.88;5144803;27;20299;-82
2021/08/24 06:16:54;;;;;;;8.18;4.03;;;;;;;12.02;100.00;99751.34;5136080;27;19934;-81
2021/08/24 06:19:28;;;;;;;6.22;3.55;;;;;;;12.11;100.00;99738.53;5142250;27;20050;-82
2021/08/24 06:25:10;;;;;;;6.10;4.00;;;;;;;12.43;100.00;99749.38;5120281;27;20051;-83
2021/08/24 06:27:47;;;;;;;7.45;4.30;;;;;;;12.64;100.00;99752.25;5134676;27;20148;-83
2021/08/24 06:30:15;;;;;;;9.70;4.40;;;;;;;12.74;100.00;99760.22;5136253;27;20133;-83
2021/08/24 06:32:53;;;;;;;6.07;4.53;;;;;;;12.75;99.91;99753.69;5155409;27;20046;-82
2021/08/24 06:35:47;;;;;;;5.82;4.70;;;;;;;12.73;100.00;99744.84;5154969;27;20043;-83
2021/08/24 06:42:07;;;;;;;7.53;4.43;;;;;;;13.02;100.00;99757.72;5078928;28;20050;-83
2021/08/24 06:44:39;;;;;;;10.23;4.35;;;;;;;13.07;99.81;99757.16;5079548;28;20128;-83
2021/08/24 06:47:17;;;;;;;14.93;4.70;;;;;;;13.24;98.82;99758.66;5090843;28;20043;-83
2021/08/24 06:50:01;;;;;;;9.02;5.10;;;;;;;13.35;98.55;99770.19;5081619;28;20052;-83
2021/08/24 06:52:40;;;;;;;9.73;4.57;;;;;;;13.33;98.02;99772.25;5105487;27;20096;-83
2021/08/24 06:55:25;;;;;;;6.95;4.43;;;;;;;13.29;98.40;99758.09;5145889;27;20057;-83
2021/08/24 06:58:27;;;;;;;10.48;5.18;;;;;;;13.41;99.87;99766.69;5154164;27;20050;-83
2021/08/24 07:00:54;;;;;;;8.77;4.57;;;;;;;13.37;98.50;99760.78;5018864;28;20057;-82
2021/08/24 07:03:21;;;;;;;7.50;4.30;;;;;;;13.59;96.91;99771.78;5068641;27;20479;-83
2021/08/24 07:05:50;;;;;;;12.98;4.82;;;;;;;13.44;96.37;99769.91;5151376;27;20050;-83
2021/08/24 07:08:19;;;;;;;12.95;4.55;;;;;;;13.36;96.89;99756.34;5154828;27;20085;-83
2021/08/24 07:10:48;;;;;;;6.47;4.68;;;;;;;13.42;97.88;99750.13;5149581;27;20071;-82
2021/08/24 07:13:15;;;;;;;7.90;4.75;;;;;;;13.51;97.68;99758.22;5134016;27;20053;-82
2021/08/24 07:15:44;;;;;;;6.53;4.50;;;;;;;13.71;97.29;99755.75;5134163;27;20049;-83
2021/08/24 07:18:11;;;;;;;7.32;4.70;;;;;;;13.89;96.18;99760.81;5154453;27;20042;-83
2021/08/24 07:20:42;;;;;;;4.93;4.07;;;;;;;14.00;95.09;99776.72;5155178;27;20099;-82
2021/08/24 07:23:09;;;;;;;6.40;4.55;;;;;;;14.20;94.80;99771.47;5141383;27;20046;-81
2021/08/24 07:25:41;;;;;;;3.75;3.35;;;;;;;14.31;93.74;99768.22;5135473;27;20546;-81
2021/08/24 07:28:10;;;;;;;4.85;3.17;;;;;;;14.34;93.40;99770.56;5144232;27;20047;-80
2021/08/24 07:30:38;;;;;;;7.22;4.00;;;;;;;14.46;91.71;99750.91;5133640;27;20043;-81
2021/08/24 07:33:05;;;;;;;5.07;3.75;;;;;;;14.62;92.08;99750.66;5135898;27;20054;-81
2021/08/24 07:35:32;;;;;;;5.03;3.72;;;;;;;14.78;91.76;99759.63;5136630;27;20097;-81
2021/08/24 07:38:00;;;;;;;9.38;3.55;;;;;;;14.97;87.99;99745.25;5153545;27;20485;-82
2021/08/24 07:40:29;;;;;;;6.18;3.45;;;;;;;15.06;89.59;99742.38;5155045;27;20053;-82
2021/08/24 07:43:01;;;;;;;7.90;3.40;;;;;;;15.55;88.61;99746.84;5138688;27;20127;-83
2021/08/24 07:45:28;;;;;;;6.05;3.60;;;;;;;15.82;86.11;99736.91;5134431;27;20073;-81
2021/08/24 07:48:37;;;;;;;;;;;;;;;;;;;;;
2021/08/24 07:51:25;;;;;;;4.38;2.90;;;;;;;16.32;81.71;99744.84;5138878;27;20055;-82
2021/08/24 07:53:52;;;;;;;5.30;2.33;;;;;;;16.12;80.80;99747.53;5148841;27;20062;-81
2021/08/24 07:56:21;;;;;;;4.68;2.47;;;;;;;15.92;80.42;99748.31;5133079;27;20043;-81
2021/08/24 07:58:53;;;;;;;4.45;2.90;;;;;;;16.05;80.34;99760.41;5132844;28;20130;-81
2021/08/24 08:01:20;;;;;;;4.13;2.88;;;;;;;15.74;80.64;99742.53;5136295;27;20487;-81
2021/08/24 08:03:47;;;;;;;4.28;2.60;;;;;;;15.83;80.95;99762.41;5133450;27;20043;-80
2021/08/24 08:06:14;;;;;;;3.55;2.33;;;;;;;15.85;81.24;99755.69;5144026;27;20398;-80
2021/08/24 08:08:41;;;;;;;4.22;2.97;;;;;;;15.53;79.80;99743.47;5133283;27;20039;-81
2021/08/24 08:11:08;;;;;;;3.58;2.53;;;;;;;15.87;79.63;99739.03;5138555;27;20046;-80
2021/08/24 08:13:37;;;;;;;5.13;2.63;;;;;;;16.01;80.32;99739.91;5147656;27;20146;-80
2021/08/24 08:16:06;;;;;;;4.55;2.63;;;;;;;16.12;78.42;99757.66;5140089;27;20081;-80
2021/08/24 08:18:33;;;;;;;3.95;2.53;;;;;;;16.20;77.89;99758.31;5132111;27;20057;-80
2021/08/24 08:21:00;;;;;;;7.20;2.55;;;;;;;16.21;77.78;99749.06;5147244;27;20130;-80
2021/08/24 08:23:27;;;;;;;4.05;2.22;;;;;;;16.20;76.87;99736.38;5132735;27;20513;-80
2021/08/24 08:25:54;;;;;;;4.10;1.98;;;;;;;16.33;77.88;99737.44;5139279;27;20049;-80
2021/08/24 08:28:21;;;;;;;4.65;2.38;;;;;;;16.37;78.22;99755.19;5132986;27;20051;-80
2021/08/24 08:30:49;;;;;;;3.90;1.92;;;;;;;16.24;77.21;99773.31;5140547;27;20049;-80
2021/08/24 08:33:17;;;;;;;3.78;2.20;;;;;;;16.08;77.50;99768.22;5140355;27;20047;-80
2021/08/24 08:35:44;;;;;;;5.72;2.30;;;;;;;15.83;79.24;99745.97;5151387;27;20046;-79
2021/08/24 08:38:15;;;;;;;3.47;2.20;;;;;;;15.85;80.89;99752.09;5134730;27;20054;-80
2021/08/24 08:40:50;;;;;;;8.88;2.10;;;;;;;15.97;79.19;99760.56;5132782;27;20083;-80
2021/08/24 08:43:28;;;;;;;13.38;2.35;;;;;;;15.93;79.76;99754.66;5143006;27;20075;-80
2021/08/24 08:46:01;;;;;;;7.13;2.70;;;;;;;15.90;80.14;99758.66;5136475;27;20096;-80
2021/08/24 08:48:42;;;;;;;4.05;2.28;;;;;;;16.03;80.66;99759.75;5138615;27;20080;-80
2021/08/24 08:51:28;;;;;;;5.10;2.38;;;;;;;16.07;80.33;99750.06;5138545;27;20391;-80
2021/08/24 08:54:13;;;;;;;4.03;2.13;;;;;;;16.34;79.44;99748.22;5136229;27;20138;-80
2021/08/24 08:56:47;;;;;;;3.17;2.33;;;;;;;16.43;78.95;99737.91;5135668;27;20046;-80
2021/08/24 08:59:18;;;;;;;2.60;2.05;;;;;;;16.72;80.73;99752.28;5136284;27;20498;-80
2021/08/24 09:01:57;;;;;;;3.55;2.00;;;;;;;16.66;77.17;99739.38;5143972;27;20131;-80
2021/08/24 09:04:34;;;;;;;3.38;1.73;;;;;;;16.88;77.24;99748.28;5138826;27;20047;-80
2021/08/24 09:07:04;;;;;;;7.38;1.63;;;;;;;16.77;75.86;99736.84;5136889;27;20054;-80
2021/08/24 09:09:31;;;;;;;2.15;1.70;;;;;;;16.59;76.72;99744.84;5148492;27;20495;-80
2021/08/24 09:12:04;;;;;;;3.17;2.00;;;;;;;16.70;77.27;99746.16;5118350;27;20489;-80
2021/08/24 09:14:38;;;;;;;4.47;1.95;;;;;;;16.82;78.20;99758.19;5135787;27;20059;-80
2021/08/24 09:17:19;;;;;;;2.88;1.95;;;;;;;16.71;76.43;99756.06;5135273;27;20051;-80
2021/08/24 09:19:56;;;;;;;4.00;1.92;;;;;;;16.75;77.48;99754.59;5135817;27;20081;-80
2021/08/24 09:22:24;;;;;;;4.35;2.33;;;;;;;16.95;78.44;99755.47;5135858;27;20499;-80
2021/08/24 09:24:51;;;;;;;2.33;1.73;;;;;;;16.94;77.28;99751.03;5147555;27;20070;-80
2021/08/24 09:27:27;;;;;;;3.97;2.00;;;;;;;16.83;77.21;99756.28;5138943;27;20043;-80
2021/08/24 09:29:57;;;;;;;6.57;2.15;;;;;;;16.75;77.36;99758.16;5135687;27;20108;-80
2021/08/24 09:32:28;;;;;;;;;;;;;;;16.93;77.09;99760.31;5148695;27;20058;-80
2021/08/24 09:35:08;;;;;;;2.53;1.88;;;;;;;16.84;77.34;99750.56;5144413;27;19931;-80
2021/08/24 09:37:43;;;;;;;5.25;2.03;;;;;;;17.01;76.42;99750.16;5135237;27;20043;-80
2021/08/24 09:40:12;;;;;;;2.53;2.20;;;;;;;16.92;76.81;99744.03;5137765;27;20130;-79
2021/08/24 09:42:43;;;;;;;2.78;1.60;;;;;;;16.73;77.62;99737.50;5136333;27;20046;-80
2021/08/24 09:45:27;;;;;;;3.80;2.28;;;;;;;16.67;76.06;99754.81;5134969;27;20447;-80
2021/08/24 09:48:08;;;;;;;4.05;2.05;;;;;;;16.59;77.27;99750.34;5135734;27;20051;-80
2021/08/24 09:50:39;;;;;;;5.07;2.20;;;;;;;16.75;77.39;99760.91;5135204;27;20059;-80
2021/08/24 09:53:08;;;;;;;3.30;2.22;;;;;;;16.83;77.72;99759.88;5144778;27;20055;-80
2021/08/24 09:55:48;;;;;;;3.13;2.40;;;;;;;16.61;77.29;99749.09;5135244;27;20051;-80
2021/08/24 09:58:27;;;;;;;4.38;2.05;;;;;;;16.62;77.47;99763.69;5135331;27;20482;-80
2021/08/24 10:01:02;;;;;;;2.83;2.42;;;;;;;16.68;78.05;99759.22;5134944;27;20493;-80
2021/08/24 10:03:39;;;;;;;2.17;1.98;;;;;;;16.68;76.92;99737.25;5135632;27;20047;-80
2021/08/24 10:06:25;;;;;;;3.22;2.33;;;;;;;16.61;78.12;99751.84;5137630;27;20103;-79
2021/08/24 10:08:55;;;;;;;3.78;2.33;;;;;;;16.65;78.10;99755.03;5138483;27;20126;-79
2021/08/24 10:11:28;;;;;;;3.22;2.38;;;;;;;16.69;79.46;99775.47;5134729;27;20379;-79
2021/08/24 10:14:11;;;;;;;3.80;2.60;;;;;;;16.90;79.79;99763.47;5140262;27;20047;-79
2021/08/24 10:16:40;;;;;;;3.00;2.20;;;;;;;16.90;76.48;99765.41;5150753;27;20474;-79
2021/08/24 10:19:11;;;;;;;4.60;2.40;;;;;;;17.05;76.23;99763.25;5136549;27;20043;-80
2021/08/24 10:21:45;;;;;;;3.13;2.25;;;;;;;16.79;76.50;99759.44;5154952;27;20046;-79
2021/08/24 10:24:16;;;;;;;2.45;2.13;;;;;;;16.91;78.51;99754.19;5134583;27;20051;-79
2021/08/24 10:26:43;;;;;;;5.13;2.20;;;;;;;17.09;77.81;99764.53;5144903;27;20438;-79
2021/08/24 10:29:14;;;;;;;6.55;2.67;;;;;;;17.06;77.64;99773.22;5143766;27;20071;-79
2021/08/24 10:31:52;;;;;;;8.38;2.63;;;;;;;16.93;76.07;99753.97;5138431;27;20051;-79
2021/08/24 10:34:28;;;;;;;4.28;2.28;;;;;;;16.97;77.10;99775.31;5152557;27;20501;-79
2021/08/24 10:37:14;;;;;;;3.08;2.45;;;;;;;16.99;76.65;99773.19;5136183;27;20082;-79
2021/08/24 10:39:42;;;;;;;8.68;2.40;;;;;;;17.06;76.04;99753.16;5133863;27;20122;-79
2021/08/24 10:42:20;;;;;;;4.28;2.67;;;;;;;17.11;75.31;99764.31;5145652;27;20046;-79
2021/08/24 10:44:52;;;;;;;6.50;2.60;;;;;;;16.99;77.05;99753.97;5136617;27;20055;-80
2021/08/24 10:47:24;;;;;;;3.47;2.22;;;;;;;17.02;77.00;99752.72;5136490;27;20090;-81
2021/08/24 10:49:54;;;;;;;4.40;2.67;;;;;;;16.94;76.39;99767.50;5138561;27;20062;-80
2021/08/24 10:52:49;;;;;;;5.68;3.17;;;;;;;16.90;78.44;99771.72;5134222;27;20043;-80
2021/08/24 10:55:21;;;;;;;4.43;2.53;;;;;;;17.23;77.83;99775.50;5133719;27;20501;-79
2021/08/24 10:57:58;;;;;;;4.20;2.65;;;;;;;17.22;75.53;99766.41;5146951;27;20141;-79
2021/08/24 11:00:51;;;;;;;3.78;2.55;;;;;;;17.05;75.62;99773.41;5150032;27;20126;-80
2021/08/24 11:03:44;;;;;;;4.32;2.60;;;;;;;17.15;75.30;99762.84;5147413;27;20109;-80
2021/08/24 11:06:24;;;;;;;5.88;3.17;;;;;;;17.20;76.63;99781.44;5144380;27;20055;-80
2021/08/24 11:09:05;;;;;;;3.05;2.75;;;;;;;17.19;76.25;99769.59;5155264;27;20047;-80
2021/08/24 11:11:44;;;;;;;4.88;2.58;;;;;;;17.05;75.66;99766.00;5153960;27;20042;-79
2021/08/24 11:14:22;;;;;;;4.80;2.50;;;;;;;17.08;76.86;99783.97;5153401;27;20367;-79
2021/08/24 11:17:01;;;;;;;5.22;2.70;;;;;;;17.02;77.52;99773.84;5154273;27;20050;-80
2021/08/24 11:19:55;;;;;;;5.82;3.03;;;;;;;16.87;77.34;99796.88;5148403;27;20564;-80
2021/08/24 11:22:28;;;;;;;4.45;3.00;;;;;;;16.87;76.78;99794.13;5133557;27;20122;-79
2021/08/24 11:25:06;;;;;;;8.02;3.53;;;;;;;17.07;76.33;99776.78;5134455;27;20051;-80
2021/08/24 11:27:43;;;;;;;4.68;3.28;;;;;;;17.11;75.15;99791.78;5134448;27;20494;-80
2021/08/24 11:30:21;;;;;;;5.72;2.75;;;;;;;17.02;75.13;99788.41;5138194;27;20099;-80
2021/08/24 11:32:55;;;;;;;4.35;2.65;;;;;;;16.88;75.51;99768.34;5154080;27;20123;-79
2021/08/24 11:35:28;;;;;;;3.58;2.67;;;;;;;17.02;74.70;99790.31;5149450;27;20049;-80
2021/08/24 11:38:01;;;;;;;4.60;3.15;;;;;;;16.95;76.21;99788.44;5133361;27;20115;-81
2021/08/24 11:40:39;;;;;;;6.07;3.00;;;;;;;16.80;76.58;99772.13;5133228;27;20558;-80
2021/08/24 11:43:15;;;;;;;3.85;2.67;;;;;;;16.71;76.20;99780.75;5152299;27;20054;-80
2021/08/24 11:45:46;;;;;;;8.57;3.30;;;;;;;16.84;77.71;99804.66;5153928;27;20091;-80
2021/08/24 11:48:20;;;;;;;7.05;3.05;;;;;;;16.74;76.73;99802.31;5136595;27;20429;-80
2021/08/24 11:50:51;;;;;;;4.25;2.67;;;;;;;16.67;77.61;99812.47;5132901;27;20080;-79
2021/08/24 11:53:28;;;;;;;9.57;3.10;;;;;;;16.77;77.11;99788.16;5150154;27;20099;-80
2021/08/24 11:56:00;;;;;;;3.63;2.70;;;;;;;16.84;76.29;99797.25;5153877;27;20111;-80
2021/08/24 11:58:35;;;;;;;6.20;3.13;;;;;;;16.88;76.00;99779.34;5137286;27;20090;-80
2021/08/24 12:01:04;;;;;;;5.63;3.22;;;;;;;17.04;76.00;99780.81;5132952;28;20093;-79
2021/08/24 12:03:35;;;;;;;5.00;3.15;;;;;;;17.31;75.50;99789.88;5141765;27;20043;-80
2021/08/24 12:06:08;;;;;;;5.43;2.85;;;;;;;17.22;75.22;99771.91;5153145;27;20050;-80
2021/08/24 12:08:44;;;;;;;6.65;2.75;;;;;;;17.33;74.40;99793.25;5143928;27;20120;-80
2021/08/24 12:11:16;;;;;;;3.40;2.65;;;;;;;17.43;75.11;99800.19;5132733;28;20051;-79
2021/08/24 12:13:47;;;;;;;7.82;3.00;;;;;;;17.30;75.62;99798.34;5141506;27;20095;-80
2021/08/24 12:16:32;;;;;;;5.10;3.00;;;;;;;17.38;73.68;99795.34;5153296;27;20478;-80
2021/08/24 12:19:21;;;;;;;3.80;2.65;;;;;;;17.32;74.33;99802.53;5150710;27;20053;-80
2021/08/24 12:21:54;;;;;;;4.43;2.90;;;;;;;17.32;74.49;99816.28;5137167;27;20066;-80
2021/08/24 12:24:50;;;;;;;4.35;2.50;;;;;;;17.23;75.70;99801.06;5141206;27;20043;-79
2021/08/24 12:27:54;;;;;;;8.93;2.88;;;;;;;17.42;73.95;99787.50;5157708;27;20102;-79
2021/08/24 12:30:26;;;;;;;3.38;2.42;;;;;;;17.63;73.07;99786.41;5153174;27;20039;-79
2021/08/24 12:33:12;;;;;;;3.83;2.50;;;;;;;17.97;71.23;99795.41;5137111;27;20057;-79
2021/08/24 12:35:42;;;;;;;3.10;2.50;;;;;;;18.17;71.33;99773.31;5136531;27;20134;-79
2021/08/24 12:38:12;;;;;;;5.18;2.88;;;;;;;18.35;72.33;99776.19;5157455;27;20537;-79
2021/08/24 12:41:00;;;;;;;3.13;2.13;;;;;;;18.24;71.17;99798.06;5157397;27;20046;-80
2021/08/24 12:43:52;;;;;;;6.10;2.15;;;;;;;18.08;71.87;99782.88;5136620;27;20112;-80
2021/08/24 12:46:34;;;;;;;2.50;2.00;;;;;;;18.03;72.97;99794.53;5136242;27;20058;-79
2021/08/24 12:49:32;;;;;;;3.78;2.53;;;;;;;18.24;74.53;99793.38;5139030;27;20043;-79
2021/08/24 12:52:08;;;;;;;4.45;2.40;;;;;;;18.18;72.97;99783.25;5138373;27;20489;-80
2021/08/24 12:54:47;;;;;;;4.25;2.15;;;;;;;18.07;72.86;99781.22;5152526;27;20126;-79
2021/08/24 12:57:16;;;;;;;5.33;2.47;;;;;;;18.10;72.95;99775.28;5157419;27;20051;-80
2021/08/24 12:59:47;;;;;;;3.97;2.70;;;;;;;18.13;71.99;99788.59;5156846;27;20436;-80
2021/08/24 13:02:29;;;;;;;5.22;2.45;;;;;;;18.16;73.46;99788.16;5156970;27;20046;-79
2021/08/24 13:05:02;;;;;;;5.72;3.13;;;;;;;18.26;72.87;99793.16;5150431;27;20134;-81
2021/08/24 13:07:43;;;;;;;5.53;3.15;;;;;;;18.30;72.26;99792.50;5136350;27;20061;-79
2021/08/24 13:10:19;;;;;;;7.32;3.03;;;;;;;18.60;72.90;99777.31;5141388;27;20042;-79
2021/08/24 13:12:47;;;;;;;3.47;2.90;;;;;;;18.68;70.50;99771.50;5156803;27;20129;-80